TimeMDT,TemperatureF,Dew PointF,Humidity,Sea Level PressureIn,VisibilityMPH,Wind Direction,Wind SpeedMPH,Gust SpeedMPH,PrecipitationIn,Events,Conditions,WindDirDegrees,DateUTC
12:53 AM,73.9,61.0,64,29.86,10.0,South,6.9,-,N/A,,Clear,170,2013-08-21 06:53:00
1:53 AM,73.0,60.1,64,29.85,10.0,South,6.9,-,N/A,,Clear,180,2013-08-21 07:53:00
2:53 AM,71.1,60.1,68,29.85,10.0,South,4.6,-,N/A,,Clear,170,2013-08-21 08:53:00
3:53 AM,69.1,60.1,73,29.85,10.0,SE,6.9,-,N/A,,Clear,140,2013-08-21 09:53:00
4:53 AM,66.0,60.1,81,29.85,10.0,SSE,4.6,-,N/A,,Clear,150,2013-08-21 10:53:00
5:53 AM,64.0,59.0,84,29.87,9.0,SSE,4.6,-,N/A,,Clear,150,2013-08-21 11:53:00
6:53 AM,66.0,60.1,81,29.88,9.0,SSE,5.8,-,N/A,,Clear,150,2013-08-21 12:53:00
7:53 AM,73.0,61.0,66,29.90,10.0,South,4.6,-,N/A,,Clear,170,2013-08-21 13:53:00
8:53 AM,78.1,61.0,56,29.88,10.0,South,5.8,-,N/A,,Clear,190,2013-08-21 14:53:00
9:53 AM,82.9,61.0,47,29.88,10.0,Variable,3.5,-,N/A,,Clear,0,2013-08-21 15:53:00
10:53 AM,84.0,62.1,47,29.88,10.0,ESE,6.9,-,N/A,,Clear,120,2013-08-21 16:53:00
11:53 AM,90.0,61.0,38,29.87,10.0,East,8.1,-,N/A,,Clear,100,2013-08-21 17:53:00
12:53 PM,93.9,60.1,32,29.85,10.0,SE,10.4,-,N/A,,Clear,140,2013-08-21 18:53:00
1:53 PM,97.0,61.0,30,29.85,10.0,South,8.1,17.3,N/A,,Clear,180,2013-08-21 19:53:00
2:53 PM,98.1,57.0,25,29.83,10.0,South,5.8,-,N/A,,Clear,180,2013-08-21 20:53:00
3:53 PM,99.0,55.9,24,29.81,10.0,SSW,3.5,-,N/A,,Clear,200,2013-08-21 21:53:00
4:53 PM,98.1,54.0,23,29.81,10.0,SSE,4.6,-,N/A,,Clear,150,2013-08-21 22:53:00
5:53 PM,91.0,55.9,30,29.81,10.0,SSW,10.4,-,N/A,,Partly Cloudy,210,2013-08-21 23:53:00
6:53 PM,89.1,55.9,32,29.82,10.0,West,4.6,-,N/A,,Clear,260,2013-08-22 00:53:00
7:53 PM,84.0,59.0,43,29.85,10.0,East,5.8,-,N/A,,Clear,100,2013-08-22 01:53:00
8:53 PM,81.0,64.0,56,29.85,10.0,Calm,Calm,-,N/A,,Partly Cloudy,0,2013-08-22 02:53:00
9:53 PM,78.1,64.0,62,29.86,10.0,WSW,3.5,-,N/A,,Clear,250,2013-08-22 03:53:00
10:53 PM,73.0,64.0,73,29.91,10.0,NNE,13.8,24.2,N/A,,Clear,30,2013-08-22 04:53:00
11:53 PM,70.0,62.1,76,29.92,10.0,NNE,11.5,-,N/A,,Clear,20,2013-08-22 05:53:00